createdAt,value
2022-11-14T00:00:45.632Z,5.90
2022-11-14T00:01:36.714Z,5.97
2022-11-14T00:02:30.864Z,6.00
2022-11-14T00:03:21.897Z,5.60
2022-11-14T00:04:15.760Z,5.40
2022-11-14T00:05:08.452Z,6.07
2022-11-14T00:06:01.748Z,6.10
2022-11-14T00:06:52.536Z,5.97
2022-11-14T00:07:46.107Z,6.37
2022-11-14T00:08:37.116Z,5.80
2022-11-14T00:09:33.608Z,6.60
2022-11-14T00:10:25.060Z,6.30
2022-11-14T00:11:18.727Z,6.10
2022-11-14T00:12:09.467Z,6.40
2022-11-14T00:13:03.001Z,6.53
2022-11-14T00:13:54.085Z,6.30
2022-11-14T00:14:47.338Z,6.40
2022-11-14T00:15:38.002Z,6.27
2022-11-14T00:16:31.509Z,5.70
2022-11-14T00:17:22.364Z,6.60
2022-11-14T00:18:16.047Z,6.40
2022-11-14T00:19:07.017Z,6.00
2022-11-14T00:20:00.192Z,6.83
2022-11-14T00:20:52.071Z,6.87
2022-11-14T00:21:46.656Z,6.77
2022-11-14T00:22:37.525Z,7.37
2022-11-14T00:23:30.960Z,6.90
2022-11-14T00:24:21.793Z,6.60
2022-11-14T00:25:18.018Z,6.13
2022-11-14T00:26:08.829Z,6.90
2022-11-14T00:27:02.321Z,6.53
2022-11-14T00:27:53.049Z,6.22
2022-11-14T00:28:46.640Z,5.65
2022-11-14T00:29:37.312Z,6.20
2022-11-14T00:30:30.883Z,6.20
2022-11-14T00:31:21.695Z,5.97
2022-11-14T00:32:15.297Z,5.80
2022-11-14T00:33:06.212Z,6.50
2022-11-14T00:33:59.537Z,5.80
2022-11-14T00:34:50.303Z,6.10
2022-11-14T00:35:43.532Z,5.80
2022-11-14T00:36:34.376Z,5.57
2022-11-14T00:37:27.744Z,6.03
2022-11-14T00:38:18.713Z,5.70
2022-11-14T00:39:14.728Z,5.45
2022-11-14T00:40:06.660Z,5.73
2022-11-14T00:41:02.761Z,5.73
2022-11-14T00:41:53.511Z,5.87
2022-11-14T00:42:47.869Z,5.37
2022-11-14T00:43:38.395Z,5.80
2022-11-14T00:44:31.847Z,5.37
2022-11-14T00:45:23.050Z,5.60
2022-11-14T00:46:16.990Z,4.97
2022-11-14T00:47:07.867Z,5.30
2022-11-14T00:48:01.825Z,5.47
2022-11-14T00:48:52.438Z,5.10
2022-11-14T00:49:45.684Z,5.50
2022-11-14T00:50:38.115Z,5.07
2022-11-14T00:51:31.485Z,5.37
2022-11-14T00:52:22.084Z,5.75
2022-11-14T00:53:16.025Z,5.40
2022-11-14T00:54:06.659Z,5.07
2022-11-14T00:54:57.770Z,4.93
2022-11-14T00:55:51.314Z,6.65
2022-11-14T00:56:44.580Z,5.20
2022-11-14T00:57:38.117Z,5.60
2022-11-14T00:58:29.133Z,5.65
2022-11-14T00:59:22.879Z,5.43
2022-11-14T01:00:14.825Z,6.10
2022-11-14T01:01:09.391Z,5.67
2022-11-14T01:02:00.289Z,5.50
2022-11-14T01:02:56.951Z,5.90
2022-11-14T01:03:48.884Z,5.10
2022-11-14T01:04:42.598Z,5.73
2022-11-14T01:05:33.476Z,5.37
2022-11-14T01:06:27.423Z,5.87
2022-11-14T01:07:18.359Z,6.13
2022-11-14T01:08:11.580Z,5.95
2022-11-14T01:09:02.340Z,5.90
2022-11-14T01:09:55.996Z,5.70
2022-11-14T01:10:49.475Z,5.93
2022-11-14T01:11:42.978Z,5.93
2022-11-14T01:12:36.691Z,5.95
2022-11-14T01:13:30.476Z,5.57
2022-11-14T01:14:21.040Z,5.63
2022-11-14T01:15:14.436Z,5.22
2022-11-14T01:16:06.792Z,5.87
2022-11-14T01:17:00.000Z,5.13
2022-11-14T01:17:50.554Z,5.50
2022-11-14T01:18:41.887Z,5.43
2022-11-14T01:19:35.695Z,5.50
2022-11-14T01:20:26.252Z,5.50
2022-11-14T01:21:19.971Z,5.70
2022-11-14T01:22:10.581Z,5.00
2022-11-14T01:23:04.115Z,5.37
2022-11-14T01:23:55.013Z,5.63
2022-11-14T01:24:48.256Z,5.80
2022-11-14T01:25:40.368Z,4.97
2022-11-14T01:26:33.924Z,5.80
2022-11-14T01:27:24.851Z,5.33
2022-11-14T01:28:22.539Z,6.45
2022-11-14T01:29:13.313Z,5.55
2022-11-14T01:30:07.301Z,6.20
2022-11-14T01:30:58.000Z,5.40
2022-11-14T01:31:51.954Z,5.80
2022-11-14T01:32:42.900Z,5.17
2022-11-14T01:33:36.268Z,5.53
2022-11-14T01:34:26.941Z,5.93
2022-11-14T01:35:20.469Z,5.60
2022-11-14T01:36:11.617Z,5.90
2022-11-14T01:37:05.274Z,4.63
2022-11-14T01:37:55.876Z,5.40
2022-11-14T01:38:46.648Z,5.50
2022-11-14T01:39:40.048Z,5.53
2022-11-14T01:40:31.317Z,5.80
2022-11-14T01:41:25.422Z,5.20
2022-11-14T01:42:17.593Z,5.60
2022-11-14T01:43:32.081Z,5.70
2022-11-14T01:44:57.389Z,5.10
2022-11-14T01:45:52.637Z,5.30
2022-11-14T01:46:49.628Z,6.05
2022-11-14T01:47:40.396Z,5.30
2022-11-14T01:48:38.431Z,5.67
2022-11-14T01:49:37.566Z,5.38
2022-11-14T01:50:28.793Z,5.20
2022-11-14T01:51:27.449Z,5.55
2022-11-14T01:52:20.120Z,5.72
2022-11-14T01:53:13.384Z,5.50
2022-11-14T01:54:06.157Z,6.10
2022-11-14T01:55:02.209Z,5.83
2022-11-14T01:55:54.472Z,5.72
2022-11-14T01:56:50.995Z,6.30
2022-11-14T01:57:45.412Z,5.73
2022-11-14T01:58:44.979Z,6.03
2022-11-14T01:59:38.123Z,5.75
2022-11-14T02:00:31.397Z,6.30
2022-11-14T02:01:23.305Z,6.13
2022-11-14T02:02:19.820Z,6.50
2022-11-14T02:03:12.425Z,6.10
2022-11-14T02:04:10.617Z,5.73
2022-11-14T02:05:08.328Z,6.57
2022-11-14T02:06:01.752Z,5.70
2022-11-14T02:06:56.169Z,5.53
2022-11-14T02:07:49.924Z,6.30
2022-11-14T02:08:41.387Z,5.63
2022-11-14T02:09:38.558Z,6.23
2022-11-14T02:10:29.628Z,5.80
2022-11-14T02:11:23.415Z,6.07
2022-11-14T02:12:16.213Z,5.75
2022-11-14T02:13:09.971Z,5.57
2022-11-14T02:14:03.315Z,5.83
2022-11-14T02:14:59.287Z,5.73
2022-11-14T02:15:50.608Z,5.15
2022-11-14T02:17:00.833Z,5.80
2022-11-14T02:17:55.922Z,6.05
2022-11-14T02:18:49.373Z,5.43
2022-11-14T02:19:44.951Z,5.83
2022-11-14T02:20:43.900Z,5.50
2022-11-14T02:21:34.704Z,5.67
2022-11-14T02:22:28.047Z,5.20
2022-11-14T02:23:25.705Z,5.87
2022-11-14T02:24:19.146Z,5.85
2022-11-14T02:25:11.309Z,5.40
2022-11-14T02:26:04.748Z,5.50
2022-11-14T02:26:55.479Z,6.07
2022-11-14T02:27:48.830Z,5.18
2022-11-14T02:28:39.587Z,5.30
2022-11-14T02:29:35.070Z,5.73
2022-11-14T02:30:26.075Z,5.63
2022-11-14T02:31:19.693Z,5.33
2022-11-14T02:32:11.145Z,5.40
2022-11-14T02:33:12.024Z,5.25
2022-11-14T02:34:02.871Z,5.60
2022-11-14T02:34:56.256Z,5.37
2022-11-14T02:35:49.560Z,5.67
2022-11-14T02:36:43.292Z,5.82
2022-11-14T02:37:34.004Z,5.20
2022-11-14T02:38:28.239Z,5.68
2022-11-14T02:39:19.469Z,5.40
2022-11-14T02:40:14.371Z,5.30
2022-11-14T02:41:05.313Z,5.53
2022-11-14T02:41:59.069Z,5.40
2022-11-14T02:42:49.967Z,6.00
2022-11-14T02:43:43.525Z,6.00
2022-11-14T02:44:34.103Z,5.43
2022-11-14T02:45:28.220Z,5.80
2022-11-14T02:46:19.121Z,5.25
2022-11-14T02:47:12.484Z,5.35
2022-11-14T02:48:03.852Z,5.33
2022-11-14T02:48:57.083Z,5.70
2022-11-14T02:49:47.931Z,6.07
2022-11-14T02:50:41.629Z,5.70
2022-11-14T02:51:35.085Z,5.63
2022-11-14T02:52:28.288Z,5.90
2022-11-14T02:53:19.001Z,6.32
2022-11-14T02:54:12.444Z,5.83
2022-11-14T02:55:03.105Z,5.93
2022-11-14T02:55:56.799Z,5.80
2022-11-14T02:56:47.579Z,5.70
2022-11-14T02:57:40.902Z,5.22
2022-11-14T02:58:31.860Z,5.40
2022-11-14T02:59:25.687Z,6.10
2022-11-14T03:00:18.159Z,5.60
2022-11-14T03:01:20.725Z,5.80
2022-11-14T03:02:12.209Z,6.03
2022-11-14T03:03:05.543Z,5.33
2022-11-14T03:03:56.576Z,5.53
2022-11-14T03:04:49.932Z,6.03
2022-11-14T03:05:40.812Z,5.57
2022-11-14T03:06:37.072Z,6.10
2022-11-14T03:07:28.178Z,5.72
2022-11-14T03:08:21.559Z,5.87
2022-11-14T03:09:12.668Z,5.90
2022-11-14T03:10:06.476Z,5.68
2022-11-14T03:11:03.613Z,6.00
2022-11-14T03:11:56.960Z,6.00
2022-11-14T03:12:47.897Z,5.55
2022-11-14T03:13:41.162Z,5.53
2022-11-14T03:14:31.880Z,5.65
2022-11-14T03:15:25.599Z,5.32
2022-11-14T03:16:16.160Z,5.38
2022-11-14T03:17:09.758Z,5.55
2022-11-14T03:18:00.531Z,5.15
2022-11-14T03:18:53.933Z,6.00
2022-11-14T03:19:44.721Z,6.03
2022-11-14T03:20:38.591Z,6.10
2022-11-14T03:21:29.709Z,5.70
2022-11-14T03:22:25.940Z,5.18
2022-11-14T03:23:16.508Z,5.40
2022-11-14T03:24:11.265Z,4.90
2022-11-14T03:25:02.310Z,5.63
2022-11-14T03:25:55.945Z,6.00
2022-11-14T03:26:47.159Z,5.68
2022-11-14T03:27:40.449Z,5.60
2022-11-14T03:28:31.546Z,5.33
2022-11-14T03:29:25.411Z,6.00
2022-11-14T03:30:16.566Z,5.95
2022-11-14T03:31:10.088Z,5.60
2022-11-14T03:32:00.889Z,5.97
2022-11-14T03:32:54.056Z,5.50
2022-11-14T03:33:44.845Z,5.72
2022-11-14T03:34:38.461Z,5.70
2022-11-14T03:35:29.345Z,5.70
2022-11-14T03:36:22.755Z,5.43
2022-11-14T03:37:13.853Z,5.37
2022-11-14T03:38:09.868Z,4.87
2022-11-14T03:39:00.540Z,5.60
2022-11-14T03:39:54.070Z,5.40
2022-11-14T03:40:45.014Z,5.33
2022-11-14T03:41:38.569Z,5.33
2022-11-14T03:42:29.724Z,5.60
2022-11-14T03:43:24.293Z,5.37
2022-11-14T03:44:15.225Z,5.60
2022-11-14T03:45:09.889Z,5.60
2022-11-14T03:46:00.707Z,5.87
2022-11-14T03:46:54.924Z,5.30
2022-11-14T03:47:45.668Z,5.10
2022-11-14T03:48:39.191Z,5.70
2022-11-14T03:49:29.764Z,5.50
2022-11-14T03:50:23.241Z,5.13
2022-11-14T03:51:14.229Z,5.20
2022-11-14T03:52:07.865Z,6.07
2022-11-14T03:52:58.785Z,6.07
2022-11-14T03:53:54.719Z,5.63
2022-11-14T03:54:45.648Z,5.60
2022-11-14T03:55:39.048Z,5.83
2022-11-14T03:56:29.773Z,5.53
2022-11-14T03:57:23.275Z,5.33
2022-11-14T03:58:14.393Z,5.27
2022-11-14T03:59:07.729Z,5.50
2022-11-14T03:59:58.558Z,4.90
2022-11-14T04:00:51.892Z,5.73
2022-11-14T04:01:42.712Z,5.60
2022-11-14T04:02:36.368Z,5.30
2022-11-14T04:03:27.519Z,6.10
2022-11-14T04:04:21.084Z,6.63
2022-11-14T04:05:11.947Z,6.67
2022-11-14T04:06:05.242Z,6.20
2022-11-14T04:06:56.005Z,5.73
2022-11-14T04:07:49.677Z,5.50
2022-11-14T04:08:40.688Z,6.10
2022-11-14T04:09:36.855Z,5.53
2022-11-14T04:10:27.414Z,4.83
2022-11-14T04:11:21.443Z,5.07
2022-11-14T04:12:15.741Z,5.23
2022-11-14T04:13:10.001Z,5.57
2022-11-14T04:14:01.237Z,5.10
2022-11-14T04:14:57.576Z,5.13
2022-11-14T04:15:55.030Z,4.90
2022-11-14T04:16:48.478Z,4.60
2022-11-14T04:17:40.065Z,5.17
2022-11-14T04:18:33.739Z,4.90
2022-11-14T04:19:24.914Z,4.80
2022-11-14T04:20:19.012Z,5.47
2022-11-14T04:21:10.056Z,4.73
2022-11-14T04:22:03.341Z,4.60
2022-11-14T04:22:54.297Z,4.90
2022-11-14T04:23:47.861Z,5.17
2022-11-14T04:24:41.479Z,5.03
2022-11-14T04:25:34.922Z,5.50
2022-11-14T04:26:25.865Z,5.20
2022-11-14T04:27:19.434Z,4.63
2022-11-14T04:28:10.502Z,4.47
2022-11-14T04:29:04.384Z,5.63
2022-11-14T04:29:55.280Z,4.60
2022-11-14T04:30:49.042Z,5.00
2022-11-14T04:31:39.972Z,5.37
2022-11-14T04:32:33.529Z,5.20
2022-11-14T04:33:24.381Z,5.00
2022-11-14T04:34:17.943Z,4.60
2022-11-14T04:35:09.652Z,4.97
2022-11-14T04:36:03.076Z,5.10
2022-11-14T04:36:53.961Z,4.97
2022-11-14T04:37:47.363Z,5.30
2022-11-14T04:38:39.478Z,5.83
2022-11-14T04:39:33.139Z,6.10
2022-11-14T04:40:26.282Z,4.93
2022-11-14T04:41:19.845Z,5.70
2022-11-14T04:42:10.433Z,6.80
2022-11-14T04:43:03.774Z,6.87
2022-11-14T04:43:55.043Z,5.87
2022-11-14T04:44:48.207Z,5.00
2022-11-14T04:45:39.277Z,5.43
2022-11-14T04:46:32.657Z,4.57
2022-11-14T04:47:23.522Z,4.53
2022-11-14T04:48:17.064Z,5.10
2022-11-14T04:49:08.107Z,5.10
2022-11-14T04:50:01.451Z,5.70
2022-11-14T04:50:52.434Z,5.40
2022-11-14T04:51:46.233Z,5.20
2022-11-14T04:52:37.295Z,5.10
2022-11-14T04:53:30.792Z,4.50
2022-11-14T04:54:21.464Z,5.00
2022-11-14T04:55:14.891Z,5.03
2022-11-14T04:56:08.587Z,4.57
2022-11-14T04:57:01.844Z,4.53
2022-11-14T04:57:55.119Z,4.23
2022-11-14T04:58:48.737Z,4.60
2022-11-14T04:59:39.532Z,4.80
2022-11-14T05:00:32.787Z,5.07
2022-11-14T05:01:23.927Z,4.03
2022-11-14T05:02:17.308Z,4.30
2022-11-14T05:03:09.145Z,4.53
2022-11-14T05:04:02.474Z,4.80
2022-11-14T05:04:53.663Z,4.90
2022-11-14T05:05:47.120Z,5.07
2022-11-14T05:06:37.968Z,5.10
2022-11-14T05:07:31.684Z,6.20
2022-11-14T05:08:22.473Z,5.47
2022-11-14T05:09:16.024Z,5.23
2022-11-14T05:10:08.852Z,5.57
2022-11-14T05:11:02.854Z,5.70
2022-11-14T05:11:56.005Z,5.23
2022-11-14T05:12:49.535Z,4.93
2022-11-14T05:13:40.592Z,4.97
2022-11-14T05:14:34.532Z,5.03
2022-11-14T05:15:25.519Z,5.20
2022-11-14T05:16:19.041Z,5.00
2022-11-14T05:17:09.815Z,4.63
2022-11-14T05:18:03.202Z,5.30
2022-11-14T05:18:54.189Z,5.43
2022-11-14T05:19:47.281Z,4.30
2022-11-14T05:20:38.548Z,4.77
2022-11-14T05:21:31.729Z,4.97
2022-11-14T05:22:22.591Z,4.83
2022-11-14T05:23:21.722Z,5.07
2022-11-14T05:24:12.611Z,4.90
2022-11-14T05:25:06.345Z,4.80
2022-11-14T05:26:01.069Z,5.10
2022-11-14T05:26:55.190Z,5.20
2022-11-14T05:27:48.580Z,5.17
2022-11-14T05:28:41.869Z,5.40
2022-11-14T05:29:32.864Z,4.77
2022-11-14T05:30:26.388Z,5.10
2022-11-14T05:31:18.185Z,5.00
2022-11-14T05:32:16.120Z,5.00
2022-11-14T05:33:07.556Z,5.23
2022-11-14T05:34:01.045Z,5.50
2022-11-14T05:34:51.708Z,5.30
2022-11-14T05:35:45.091Z,4.70
2022-11-14T05:36:35.938Z,4.83
2022-11-14T05:37:29.443Z,5.17
2022-11-14T05:38:20.133Z,5.10
2022-11-14T05:39:13.537Z,4.60
2022-11-14T05:40:06.035Z,4.93
2022-11-14T05:40:59.323Z,5.00
2022-11-14T05:41:50.124Z,5.73
2022-11-14T05:42:43.940Z,5.33
2022-11-14T05:43:37.387Z,5.43
2022-11-14T05:44:30.856Z,5.40
2022-11-14T05:45:21.944Z,5.53
2022-11-14T05:46:16.921Z,5.23
2022-11-14T05:47:08.082Z,6.07
2022-11-14T05:48:01.573Z,5.30
2022-11-14T05:48:52.324Z,5.47
2022-11-14T05:49:45.918Z,5.13
2022-11-14T05:50:37.127Z,5.63
2022-11-14T05:51:30.233Z,5.20
2022-11-14T05:52:21.113Z,4.53
2022-11-14T05:53:14.684Z,5.77
2022-11-14T05:54:05.882Z,5.43
2022-11-14T05:54:59.500Z,5.10
2022-11-14T05:55:50.481Z,5.80
2022-11-14T05:56:43.962Z,5.50
2022-11-14T05:57:35.919Z,5.03
2022-11-14T05:58:29.692Z,5.20
2022-11-14T05:59:22.956Z,4.70
2022-11-14T06:00:17.411Z,5.20
2022-11-14T06:01:09.923Z,5.67
2022-11-14T06:02:03.878Z,5.20
2022-11-14T06:02:55.262Z,5.13
2022-11-14T06:03:50.560Z,4.90
2022-11-14T06:04:41.460Z,5.23
2022-11-14T06:05:39.473Z,4.80
2022-11-14T06:06:30.156Z,5.43
2022-11-14T06:07:25.968Z,4.90
2022-11-14T06:08:16.977Z,5.23
2022-11-14T06:09:11.109Z,5.00
2022-11-14T06:10:01.905Z,5.07
2022-11-14T06:10:56.446Z,5.10
2022-11-14T06:11:47.409Z,5.23
2022-11-14T06:12:40.945Z,5.63
2022-11-14T06:13:32.197Z,4.83
2022-11-14T06:14:31.699Z,5.57
2022-11-14T06:15:22.542Z,4.87
2022-11-14T06:16:18.781Z,5.70
2022-11-14T06:17:09.868Z,5.30
2022-11-14T06:18:03.156Z,5.20
2022-11-14T06:18:54.273Z,5.50
2022-11-14T06:19:51.126Z,5.10
2022-11-14T06:20:41.783Z,4.88
2022-11-14T06:21:35.802Z,5.28
2022-11-14T06:22:26.843Z,5.13
2022-11-14T06:23:24.906Z,5.10
2022-11-14T06:24:17.760Z,4.80
2022-11-14T06:25:12.367Z,4.78
2022-11-14T06:26:04.870Z,4.63
2022-11-14T06:26:58.236Z,4.93
2022-11-14T06:27:52.651Z,4.85
2022-11-14T06:28:46.089Z,4.75
2022-11-14T06:29:44.632Z,4.90
2022-11-14T06:30:39.324Z,5.15
2022-11-14T06:31:33.580Z,4.70
2022-11-14T06:32:27.079Z,5.00
2022-11-14T06:33:19.544Z,4.70
2022-11-14T06:34:14.427Z,5.03
2022-11-14T06:35:09.616Z,5.05
2022-11-14T06:36:03.852Z,4.80
2022-11-14T06:36:59.844Z,5.07
2022-11-14T06:37:50.763Z,5.43
2022-11-14T06:38:45.751Z,4.87
2022-11-14T06:39:37.724Z,4.97
2022-11-14T06:40:33.228Z,5.20
2022-11-14T06:41:24.079Z,5.40
2022-11-14T06:42:19.247Z,5.03
2022-11-14T06:43:13.080Z,4.90
2022-11-14T06:44:15.150Z,5.00
2022-11-14T06:45:11.272Z,5.07
2022-11-14T06:46:04.793Z,4.30
2022-11-14T06:46:56.560Z,4.67
2022-11-14T06:47:50.590Z,4.70
2022-11-14T06:48:42.050Z,4.40
2022-11-14T06:49:47.407Z,4.40
2022-11-14T06:50:38.179Z,4.37
2022-11-14T06:51:31.922Z,3.80
2022-11-14T06:52:23.232Z,3.73
2022-11-14T06:53:16.638Z,3.80
2022-11-14T06:54:07.325Z,3.67
2022-11-14T06:55:00.932Z,3.57
2022-11-14T06:55:55.947Z,3.63
2022-11-14T06:56:49.419Z,3.40
2022-11-14T06:57:40.117Z,2.80
2022-11-14T06:58:34.963Z,3.30
2022-11-14T06:59:25.553Z,2.97
2022-11-14T07:00:22.165Z,3.50
2022-11-14T07:01:14.729Z,3.03
2022-11-14T07:02:08.160Z,3.37
2022-11-14T07:02:58.847Z,2.73
2022-11-14T07:03:52.925Z,3.00
2022-11-14T07:04:43.744Z,3.00
2022-11-14T07:05:37.792Z,3.20
2022-11-14T07:06:33.391Z,2.90
2022-11-14T07:07:24.907Z,3.10
2022-11-14T07:08:21.201Z,2.78
2022-11-14T07:09:12.247Z,3.10
2022-11-14T07:10:05.769Z,2.80
2022-11-14T07:11:04.513Z,3.37
2022-11-14T07:11:55.194Z,2.90
2022-11-14T07:12:48.424Z,3.33
2022-11-14T07:13:42.098Z,3.08
2022-11-14T07:14:35.281Z,3.03
2022-11-14T07:15:28.943Z,2.88
2022-11-14T07:16:22.339Z,2.85
2022-11-14T07:17:13.265Z,3.15
2022-11-14T07:18:06.819Z,2.93
2022-11-14T07:18:58.360Z,2.80
2022-11-14T07:19:51.848Z,2.80
2022-11-14T07:20:42.286Z,3.00
2022-11-14T07:21:37.581Z,2.58
2022-11-14T07:22:28.544Z,2.90
2022-11-14T07:23:23.124Z,2.80
2022-11-14T07:24:16.607Z,3.17
2022-11-14T07:25:08.811Z,2.60
2022-11-14T07:26:04.716Z,2.60
2022-11-14T07:26:55.355Z,2.73
2022-11-14T07:27:48.757Z,3.03
2022-11-14T07:28:41.291Z,2.78
2022-11-14T07:29:34.805Z,2.78
2022-11-14T07:30:25.636Z,2.93
2022-11-14T07:31:23.369Z,3.00
2022-11-14T07:32:14.465Z,2.67
2022-11-14T07:33:07.787Z,2.58
2022-11-14T07:33:58.469Z,2.72
2022-11-14T07:34:51.820Z,2.20
2022-11-14T07:35:45.911Z,2.63
2022-11-14T07:36:36.709Z,2.30
2022-11-14T07:37:30.200Z,2.70
2022-11-14T07:38:21.226Z,2.80
2022-11-14T07:39:14.988Z,2.53
2022-11-14T07:40:07.151Z,2.88
2022-11-14T07:41:01.867Z,3.20
2022-11-14T07:41:52.509Z,2.97
2022-11-14T07:42:46.066Z,2.78
2022-11-14T07:43:36.968Z,3.80
2022-11-14T07:44:30.402Z,5.72
2022-11-14T07:45:21.358Z,6.25
2022-11-14T07:46:16.405Z,5.35
2022-11-14T07:47:09.751Z,5.40
2022-11-14T07:48:04.693Z,4.70
2022-11-14T07:48:55.567Z,5.10
2022-11-14T07:49:48.828Z,5.18
2022-11-14T07:50:39.875Z,5.43
2022-11-14T07:51:33.627Z,4.22
2022-11-14T07:52:24.601Z,3.83
2022-11-14T07:53:18.388Z,3.63
2022-11-14T07:54:13.781Z,2.70
2022-11-14T07:55:05.154Z,3.20
2022-11-14T07:55:58.716Z,2.47
2022-11-14T07:56:49.600Z,2.50
2022-11-14T07:57:47.908Z,2.40
2022-11-14T07:58:41.216Z,2.40
2022-11-14T07:59:34.591Z,2.63
2022-11-14T08:00:28.519Z,2.40
2022-11-14T08:01:22.277Z,2.40
2022-11-14T08:02:18.732Z,2.70
2022-11-14T08:03:09.880Z,2.30
2022-11-14T08:04:03.363Z,2.57
2022-11-14T08:04:54.024Z,2.20
2022-11-14T08:05:47.291Z,3.03
2022-11-14T08:06:40.733Z,2.60
2022-11-14T08:07:31.991Z,2.90
2022-11-14T08:08:25.372Z,2.40
2022-11-14T08:09:16.152Z,2.85
2022-11-14T08:10:11.829Z,2.47
2022-11-14T08:11:05.263Z,2.80
2022-11-14T08:11:56.776Z,2.80
2022-11-14T08:13:04.639Z,2.50
2022-11-14T08:14:03.657Z,2.57
2022-11-14T08:14:57.176Z,2.73
2022-11-14T08:15:48.064Z,2.60
2022-11-14T08:16:41.563Z,2.30
2022-11-14T08:17:35.003Z,2.67
2022-11-14T08:18:29.551Z,2.53
2022-11-14T08:19:20.873Z,2.40
2022-11-14T08:20:14.730Z,2.90
2022-11-14T08:21:05.951Z,3.13
2022-11-14T08:21:59.469Z,2.80
2022-11-14T08:22:50.702Z,2.80
2022-11-14T08:23:45.424Z,2.63
2022-11-14T08:24:36.286Z,2.35
2022-11-14T08:25:29.820Z,2.70
2022-11-14T08:26:20.798Z,2.45
2022-11-14T08:27:14.095Z,2.72
2022-11-14T08:28:05.149Z,2.37
2022-11-14T08:28:58.450Z,2.20
2022-11-14T08:29:51.246Z,2.50
2022-11-14T08:30:44.545Z,2.00
2022-11-14T08:31:35.188Z,2.90
2022-11-14T08:32:28.735Z,3.05
2022-11-14T08:33:22.226Z,4.40
2022-11-14T08:34:15.954Z,4.15
2022-11-14T08:35:07.708Z,4.00
2022-11-14T08:36:04.069Z,5.07
2022-11-14T08:36:56.832Z,2.90
2022-11-14T08:37:50.072Z,3.47
2022-11-14T08:38:40.777Z,3.20
2022-11-14T08:39:34.073Z,2.95
2022-11-14T08:40:25.013Z,3.25
2022-11-14T08:41:18.425Z,2.47
2022-11-14T08:42:09.044Z,3.10
2022-11-14T08:43:03.897Z,2.50
2022-11-14T08:43:54.676Z,2.20
2022-11-14T08:44:52.062Z,2.47
2022-11-14T08:45:43.310Z,2.47
2022-11-14T08:46:36.762Z,2.70
2022-11-14T08:47:27.628Z,2.45
2022-11-14T08:48:21.177Z,2.30
2022-11-14T08:49:14.358Z,2.50
2022-11-14T08:50:08.644Z,7.87
2022-11-14T08:51:03.236Z,6.67
2022-11-14T08:51:56.638Z,2.65
2022-11-14T08:52:50.358Z,3.13
2022-11-14T08:53:43.979Z,2.88
2022-11-14T08:54:34.646Z,3.03
2022-11-14T08:55:28.196Z,3.25
2022-11-14T08:56:19.159Z,2.95
2022-11-14T08:57:15.311Z,2.80
2022-11-14T08:58:08.883Z,3.20
2022-11-14T08:58:59.870Z,3.00
2022-11-14T08:59:53.592Z,2.47
2022-11-14T09:00:44.229Z,2.70
2022-11-14T09:01:37.582Z,2.90
2022-11-14T09:02:28.836Z,2.72
2022-11-14T09:03:22.295Z,3.00
2022-11-14T09:04:15.899Z,3.50
2022-11-14T09:05:10.571Z,3.10
2022-11-14T09:06:01.925Z,3.30
2022-11-14T09:06:55.788Z,3.20
2022-11-14T09:07:46.868Z,3.15
2022-11-14T09:08:40.468Z,3.30
2022-11-14T09:09:31.822Z,4.13
2022-11-14T09:10:25.314Z,4.05
2022-11-14T09:11:19.048Z,4.00
2022-11-14T09:12:12.923Z,4.50
2022-11-14T09:13:03.978Z,3.90
2022-11-14T09:13:57.264Z,3.85
2022-11-14T09:14:47.928Z,3.90
2022-11-14T09:15:41.725Z,3.40
2022-11-14T09:16:35.871Z,3.20
2022-11-14T09:17:29.239Z,4.00
2022-11-14T09:18:20.318Z,2.80
2022-11-14T09:19:13.764Z,3.00
2022-11-14T09:20:08.037Z,3.00
2022-11-14T09:21:03.808Z,3.00
2022-11-14T09:21:54.738Z,3.17
2022-11-14T09:22:48.107Z,2.93
2022-11-14T09:23:41.785Z,2.80
2022-11-14T09:24:32.711Z,3.55
2022-11-14T09:25:26.645Z,2.60
2022-11-14T09:26:21.225Z,3.38
2022-11-14T09:27:11.848Z,3.10
2022-11-14T09:28:09.092Z,2.40
2022-11-14T09:29:00.987Z,2.47
2022-11-14T09:29:54.334Z,2.50
2022-11-14T09:30:44.815Z,2.90
2022-11-14T09:31:38.913Z,2.40
2022-11-14T09:32:29.628Z,2.60
2022-11-14T09:33:23.236Z,3.13
2022-11-14T09:34:14.285Z,2.40
2022-11-14T09:35:12.919Z,2.58
2022-11-14T09:36:09.211Z,2.70
2022-11-14T09:37:02.624Z,2.43
2022-11-14T09:37:59.961Z,2.55
2022-11-14T09:38:54.599Z,2.40
2022-11-14T09:39:45.469Z,2.38
2022-11-14T09:40:48.427Z,2.30
2022-11-14T09:41:52.134Z,2.60
2022-11-14T09:42:55.523Z,2.40
2022-11-14T09:44:09.065Z,2.22
2022-11-14T09:45:04.531Z,2.67
2022-11-14T09:45:55.136Z,2.35
2022-11-14T09:46:49.342Z,2.42
2022-11-14T09:47:46.851Z,2.42
2022-11-14T09:48:37.880Z,2.30
2022-11-14T09:49:34.893Z,2.38
2022-11-14T09:50:35.965Z,2.45
2022-11-14T09:51:32.219Z,2.60
2022-11-14T09:52:28.640Z,2.92
2022-11-14T09:53:28.856Z,2.13
2022-11-14T09:54:22.958Z,2.35
2022-11-14T09:55:18.047Z,2.40
2022-11-14T09:56:12.308Z,2.33
2022-11-14T09:57:05.695Z,2.57
2022-11-14T09:57:56.824Z,2.10
2022-11-14T09:58:50.380Z,2.38
2022-11-14T09:59:41.023Z,2.85
2022-11-14T10:00:45.933Z,2.70
2022-11-14T10:01:43.621Z,2.22
2022-11-14T10:02:44.915Z,2.53
2022-11-14T10:03:45.449Z,2.47
2022-11-14T10:04:49.698Z,2.17
2022-11-14T10:05:57.569Z,2.53
2022-11-14T10:06:58.250Z,3.30
2022-11-14T10:08:01.329Z,2.70
2022-11-14T10:09:04.822Z,2.77
2022-11-14T10:10:05.293Z,2.72
2022-11-14T10:10:58.976Z,2.60
2022-11-14T10:11:56.716Z,2.60
2022-11-14T10:13:03.383Z,2.50
2022-11-14T10:14:08.984Z,2.40
2022-11-14T10:15:20.771Z,2.70
2022-11-14T10:16:16.317Z,2.73
2022-11-14T10:17:19.956Z,3.00
2022-11-14T10:18:22.427Z,2.70
2022-11-14T10:19:19.558Z,3.00
2022-11-14T10:20:18.543Z,2.67
2022-11-14T10:21:29.145Z,2.43
2022-11-14T10:22:33.393Z,2.83
2022-11-14T10:23:33.368Z,2.85
2022-11-14T10:24:35.922Z,3.00
2022-11-14T10:25:32.086Z,2.70
2022-11-14T10:26:30.191Z,2.83
2022-11-14T10:27:28.824Z,2.60
2022-11-14T10:28:41.707Z,2.60
2022-11-14T10:29:50.135Z,2.72
2022-11-14T10:30:45.410Z,2.70
2022-11-14T10:31:47.303Z,2.80
2022-11-14T10:33:02.481Z,3.10
2022-11-14T10:34:02.012Z,3.00
2022-11-14T10:34:56.987Z,2.90
2022-11-14T10:35:53.889Z,2.83
2022-11-14T10:36:57.869Z,3.10
2022-11-14T10:37:58.905Z,43.03
2022-11-14T10:38:52.905Z,17.43
2022-11-14T10:39:48.701Z,17.90
2022-11-14T10:40:41.605Z,21.37
2022-11-14T10:41:55.913Z,30.60
2022-11-14T10:42:50.716Z,28.67
2022-11-14T10:43:46.877Z,12.63
2022-11-14T10:44:41.778Z,20.63
2022-11-14T10:45:39.028Z,11.33
2022-11-14T10:46:33.052Z,16.27
2022-11-14T10:47:27.356Z,3.73
2022-11-14T10:48:26.252Z,2.90
2022-11-14T10:49:22.752Z,3.27
2022-11-14T10:50:18.520Z,2.83
2022-11-14T10:51:17.603Z,3.17
2022-11-14T10:52:15.558Z,2.70
2022-11-14T10:53:17.278Z,2.60
2022-11-14T10:54:14.346Z,2.67
2022-11-14T10:55:12.930Z,3.00
2022-11-14T10:56:07.469Z,2.67
2022-11-14T10:56:58.651Z,2.73
2022-11-14T10:57:52.045Z,2.93
2022-11-14T10:58:48.829Z,2.77
2022-11-14T10:59:43.234Z,3.30
2022-11-14T11:00:34.049Z,2.80
2022-11-14T11:01:39.584Z,3.10
2022-11-14T11:02:48.678Z,3.00
2022-11-14T11:03:46.400Z,3.00
2022-11-14T11:04:38.199Z,3.33
2022-11-14T11:05:33.859Z,2.53
2022-11-14T11:06:26.207Z,3.03
2022-11-14T11:07:39.500Z,3.00
2022-11-14T11:08:45.539Z,2.83
2022-11-14T11:09:53.612Z,3.13
2022-11-14T11:11:01.457Z,3.23
2022-11-14T11:12:01.792Z,3.70
2022-11-14T11:12:54.785Z,2.77
2022-11-14T11:13:54.963Z,3.00
2022-11-14T11:14:49.868Z,2.97
2022-11-14T11:15:42.463Z,3.13
2022-11-14T11:16:35.944Z,3.57
2022-11-14T11:17:35.844Z,3.03
2022-11-14T11:18:31.346Z,3.27
2022-11-14T11:19:31.039Z,3.20
2022-11-14T11:20:26.890Z,3.40
2022-11-14T11:21:22.899Z,3.07
2022-11-14T11:22:30.975Z,3.30
2022-11-14T11:23:27.288Z,3.00
2022-11-14T11:24:32.254Z,3.13
2022-11-14T11:25:27.544Z,3.57
2022-11-14T11:26:23.613Z,3.83
2022-11-14T11:27:23.750Z,3.60
2022-11-14T11:28:16.603Z,3.43
2022-11-14T11:29:18.366Z,3.07
2022-11-14T11:30:19.089Z,3.20
2022-11-14T11:31:13.681Z,2.87
2022-11-14T11:32:05.191Z,3.07
2022-11-14T11:32:58.914Z,3.10
2022-11-14T11:33:52.446Z,3.20
2022-11-14T11:34:42.984Z,2.93
2022-11-14T11:35:38.512Z,2.73
2022-11-14T11:36:32.199Z,2.87
2022-11-14T11:37:25.863Z,3.07
2022-11-14T11:38:22.436Z,2.67
2022-11-14T11:39:20.788Z,2.90
2022-11-14T11:40:20.154Z,3.00
2022-11-14T11:41:56.356Z,2.67
2022-11-14T11:43:36.738Z,3.13
2022-11-14T11:43:57.385Z,2.40
2022-11-14T11:44:50.794Z,2.90
2022-11-14T11:45:44.964Z,2.83
2022-11-14T11:46:46.646Z,2.90
2022-11-14T11:47:37.878Z,2.77
2022-11-14T11:48:35.841Z,2.70
2022-11-14T11:49:38.828Z,3.20
2022-11-14T11:50:33.221Z,3.30
2022-11-14T11:51:24.975Z,2.90
2022-11-14T11:52:21.048Z,2.70
2022-11-14T11:53:21.186Z,3.33
2022-11-14T11:54:18.418Z,3.20
2022-11-14T11:55:16.731Z,3.73
2022-11-14T11:56:13.300Z,3.40
2022-11-14T11:57:18.573Z,2.57
2022-11-14T11:58:22.259Z,3.70
2022-11-14T11:59:22.709Z,4.20
2022-11-14T12:00:20.608Z,4.30
2022-11-14T12:01:14.900Z,3.43